createdAt,value
2022-11-29T00:00:58.578Z,54.25
2022-11-29T00:04:01.655Z,55.63
2022-11-29T00:18:10.287Z,42.23
2022-11-29T00:21:12.827Z,42.60
2022-11-29T00:24:15.250Z,45.90
2022-11-29T00:27:18.194Z,49.70
2022-11-29T00:30:21.447Z,47.22
2022-11-29T00:33:23.822Z,54.88
2022-11-29T00:36:27.181Z,53.25
2022-11-29T00:39:29.655Z,50.77
2022-11-29T00:42:32.155Z,51.05
2022-11-29T00:45:34.782Z,44.75
2022-11-29T00:48:37.463Z,43.40
2022-11-29T00:51:39.963Z,43.08
2022-11-29T00:54:42.709Z,43.67
2022-11-29T00:57:45.819Z,48.45
2022-11-29T01:00:48.819Z,44.50
2022-11-29T01:03:51.453Z,46.40
2022-11-29T01:06:53.855Z,60.03
2022-11-29T01:09:56.311Z,52.00
2022-11-29T01:12:58.726Z,56.78
2022-11-29T01:16:01.202Z,46.35
2022-11-29T01:19:04.284Z,49.33
2022-11-29T01:22:06.765Z,45.13
2022-11-29T01:25:12.079Z,45.00
2022-11-29T01:28:14.448Z,39.92
2022-11-29T01:31:20.865Z,37.72
2022-11-29T01:34:23.249Z,39.95
2022-11-29T01:37:25.756Z,47.85
2022-11-29T01:40:28.182Z,50.70
2022-11-29T01:43:31.462Z,42.17
2022-11-29T01:46:36.924Z,41.50
2022-11-29T01:49:42.963Z,40.00
2022-11-29T01:52:46.110Z,40.78
2022-11-29T01:55:54.043Z,38.00
2022-11-29T01:58:56.717Z,37.08
2022-11-29T02:02:34.139Z,36.70
2022-11-29T02:05:40.846Z,37.00
2022-11-29T02:08:44.218Z,33.95
2022-11-29T02:12:05.674Z,40.47
2022-11-29T02:15:11.174Z,36.35
2022-11-29T02:18:17.850Z,36.03
2022-11-29T02:21:33.313Z,48.22
2022-11-29T02:24:41.805Z,46.27
2022-11-29T02:28:21.762Z,45.60
2022-11-29T02:31:58.916Z,77.15
2022-11-29T02:35:23.083Z,45.87
2022-11-29T02:38:35.271Z,43.67
2022-11-29T02:41:59.693Z,44.40
2022-11-29T02:45:47.112Z,44.22
2022-11-29T02:49:14.453Z,46.13
2022-11-29T02:52:29.713Z,51.65
2022-11-29T02:55:40.446Z,44.78
2022-11-29T02:58:54.431Z,55.88
2022-11-29T03:02:23.024Z,46.55
2022-11-29T03:05:40.918Z,37.15
2022-11-29T03:08:58.552Z,43.33
2022-11-29T03:12:16.643Z,46.47
2022-11-29T03:15:40.839Z,41.60
2022-11-29T03:19:05.716Z,41.35
2022-11-29T03:22:30.016Z,37.88
2022-11-29T03:25:51.099Z,35.20
2022-11-29T03:29:07.114Z,36.75
2022-11-29T03:32:48.560Z,40.65
2022-11-29T03:36:02.162Z,38.58
2022-11-29T03:39:09.624Z,38.30
2022-11-29T03:42:19.927Z,34.80
2022-11-29T03:45:32.866Z,35.47
2022-11-29T03:48:47.483Z,42.83
2022-11-29T03:52:12.843Z,39.90
2022-11-29T03:55:45.269Z,39.20
2022-11-29T03:59:03.788Z,42.35
2022-11-29T04:02:12.420Z,45.37
2022-11-29T04:05:53.156Z,36.42
2022-11-29T04:09:26.864Z,37.47
2022-11-29T04:12:57.706Z,41.72
2022-11-29T04:16:31.846Z,45.05
2022-11-29T04:19:40.282Z,50.28
2022-11-29T04:22:48.696Z,44.83
2022-11-29T04:26:16.012Z,60.77
2022-11-29T04:29:34.025Z,62.63
2022-11-29T04:32:50.802Z,57.67
2022-11-29T04:36:19.424Z,65.93
2022-11-29T04:39:40.735Z,62.43
2022-11-29T04:42:54.782Z,64.97
2022-11-29T04:46:22.446Z,62.45
2022-11-29T04:49:43.574Z,59.30
2022-11-29T04:53:01.244Z,69.78
2022-11-29T04:56:22.526Z,62.88
2022-11-29T04:59:32.967Z,53.58
2022-11-29T05:02:50.787Z,51.60
2022-11-29T05:06:05.428Z,53.38
2022-11-29T05:09:18.218Z,50.65
2022-11-29T05:12:29.550Z,48.17
2022-11-29T05:16:12.650Z,50.08
2022-11-29T05:19:38.114Z,115.10
2022-11-29T05:23:04.128Z,94.43
2022-11-29T05:26:20.231Z,69.43
2022-11-29T05:29:39.093Z,63.55
2022-11-29T05:33:06.222Z,62.67
2022-11-29T05:36:21.339Z,75.73
2022-11-29T05:39:30.148Z,88.05
2022-11-29T05:42:32.558Z,69.85
2022-11-29T05:45:45.414Z,63.23
2022-11-29T05:49:01.668Z,62.28
2022-11-29T05:52:25.109Z,62.60
2022-11-29T05:55:51.761Z,77.10
2022-11-29T05:59:00.875Z,68.35
2022-11-29T06:02:16.072Z,74.88
2022-11-29T06:05:46.935Z,68.22
2022-11-29T06:09:00.364Z,87.47
2022-11-29T06:12:09.985Z,108.70
2022-11-29T06:15:34.230Z,88.53
2022-11-29T06:18:53.571Z,97.15
2022-11-29T06:22:09.252Z,93.15
2022-11-29T06:25:33.243Z,103.70
2022-11-29T06:28:41.353Z,83.00
2022-11-29T06:31:48.374Z,96.00
2022-11-29T06:35:03.410Z,107.25
2022-11-29T06:38:23.933Z,108.60
2022-11-29T06:41:26.787Z,89.77
2022-11-29T06:44:29.497Z,83.78
2022-11-29T06:47:42.563Z,92.25
2022-11-29T06:50:54.069Z,122.00
2022-11-29T06:53:59.451Z,103.63
2022-11-29T06:57:07.991Z,101.40
2022-11-29T07:00:21.723Z,99.07
2022-11-29T07:03:57.333Z,100.33
2022-11-29T07:07:00.305Z,93.95
2022-11-29T07:10:07.407Z,80.05
2022-11-29T07:13:13.825Z,72.65
2022-11-29T07:16:25.929Z,76.35
2022-11-29T07:19:34.778Z,76.07
2022-11-29T07:23:11.755Z,76.30
2022-11-29T07:26:33.452Z,63.80
2022-11-29T07:29:53.887Z,66.00
2022-11-29T07:33:15.061Z,77.80
2022-11-29T07:36:26.432Z,84.93
2022-11-29T07:39:43.072Z,88.03
2022-11-29T07:43:10.302Z,78.00
2022-11-29T07:46:12.832Z,76.18
2022-11-29T07:49:15.410Z,76.97
2022-11-29T07:52:18.203Z,75.97
2022-11-29T07:55:22.646Z,70.78
2022-11-29T07:58:25.265Z,58.00
2022-11-29T08:01:28.161Z,61.67
2022-11-29T08:04:30.778Z,51.38
2022-11-29T08:07:41.247Z,47.85
2022-11-29T08:10:49.973Z,56.83
2022-11-29T08:14:00.744Z,49.22
2022-11-29T08:17:03.200Z,44.42
2022-11-29T08:20:07.513Z,22.77
2022-11-29T08:23:12.848Z,46.30
2022-11-29T08:26:25.539Z,54.53
2022-11-29T08:29:32.439Z,55.50
2022-11-29T08:32:34.925Z,48.55
2022-11-29T08:35:37.420Z,50.00
2022-11-29T08:38:40.015Z,48.90
2022-11-29T08:41:42.846Z,60.42
2022-11-29T08:44:45.525Z,44.70
2022-11-29T08:47:48.161Z,60.25
2022-11-29T08:50:52.733Z,59.23
2022-11-29T08:53:57.133Z,56.42
2022-11-29T08:57:38.032Z,55.05
2022-11-29T09:00:23.282Z,50.47
2022-11-29T09:03:44.638Z,49.00
2022-11-29T09:06:49.659Z,44.22
2022-11-29T09:09:52.242Z,42.05
2022-11-29T09:12:55.101Z,38.23
2022-11-29T09:15:58.143Z,35.60
2022-11-29T09:19:00.958Z,35.13
2022-11-29T09:22:03.715Z,32.67
2022-11-29T09:25:06.806Z,37.03
2022-11-29T09:28:09.447Z,36.38
2022-11-29T09:31:14.393Z,39.25
2022-11-29T09:34:18.611Z,35.03
2022-11-29T09:37:21.142Z,35.67
2022-11-29T09:40:31.013Z,39.80
2022-11-29T09:44:11.869Z,38.13
2022-11-29T09:47:45.465Z,37.50
2022-11-29T09:50:54.406Z,26.95
2022-11-29T09:53:56.970Z,33.60
2022-11-29T09:56:59.863Z,36.58
2022-11-29T10:00:07.009Z,28.93
2022-11-29T10:03:17.059Z,32.45
2022-11-29T10:06:30.948Z,35.78
2022-11-29T10:09:44.351Z,35.20
2022-11-29T10:12:52.515Z,30.98
2022-11-29T10:16:00.619Z,30.20
2022-11-29T10:19:21.927Z,31.15
2022-11-29T10:22:45.705Z,37.03
2022-11-29T10:25:54.756Z,30.52
2022-11-29T10:28:58.051Z,33.67
2022-11-29T10:32:10.002Z,35.80
2022-11-29T10:35:16.395Z,30.57
2022-11-29T10:38:34.235Z,24.95
2022-11-29T10:41:36.759Z,35.13
2022-11-29T10:44:39.185Z,37.78
2022-11-29T10:47:41.690Z,23.47
2022-11-29T10:50:48.553Z,29.80
2022-11-29T10:53:52.712Z,27.40
2022-11-29T10:56:57.856Z,32.30
2022-11-29T11:00:04.613Z,28.67
2022-11-29T11:03:17.234Z,23.00
2022-11-29T11:06:27.633Z,27.80
2022-11-29T11:09:39.168Z,31.67
2022-11-29T11:13:01.017Z,29.08
2022-11-29T11:16:20.604Z,32.70
2022-11-29T11:19:30.800Z,30.70
2022-11-29T11:22:34.756Z,33.77
2022-11-29T11:25:40.631Z,26.90
2022-11-29T11:29:00.244Z,32.30
2022-11-29T11:32:04.765Z,32.60
2022-11-29T11:35:22.819Z,29.35
2022-11-29T11:38:25.336Z,30.23
2022-11-29T11:41:52.189Z,29.65
2022-11-29T11:44:54.965Z,21.45
2022-11-29T11:48:05.001Z,22.03
2022-11-29T11:51:21.353Z,24.70
2022-11-29T11:54:24.200Z,17.88
2022-11-29T11:57:28.242Z,25.40
2022-11-29T12:04:35.708Z,25.07
2022-11-29T12:11:16.041Z,26.85
2022-11-29T12:14:46.357Z,24.80
2022-11-29T12:17:52.006Z,17.80
2022-11-29T12:21:00.751Z,15.10
2022-11-29T12:24:20.589Z,23.48
2022-11-29T12:27:23.052Z,18.63
2022-11-29T12:30:25.979Z,23.10
2022-11-29T12:33:51.323Z,19.83
2022-11-29T12:37:16.292Z,24.50
2022-11-29T12:40:32.534Z,18.75
2022-11-29T12:43:53.427Z,19.70
2022-11-29T12:47:34.786Z,22.90
2022-11-29T12:50:52.167Z,19.55
2022-11-29T12:54:02.886Z,20.73
2022-11-29T12:57:23.769Z,20.30
2022-11-29T13:00:30.864Z,20.63
2022-11-29T13:03:44.795Z,20.07
2022-11-29T13:07:06.219Z,20.83
2022-11-29T13:10:18.375Z,19.23
2022-11-29T13:13:41.375Z,19.90
2022-11-29T13:16:59.618Z,20.90
2022-11-29T13:20:25.668Z,16.63
2022-11-29T13:23:46.190Z,21.23
2022-11-29T13:26:56.133Z,20.17
2022-11-29T13:30:00.931Z,20.15
2022-11-29T13:33:13.583Z,21.77
2022-11-29T13:36:21.814Z,16.33
2022-11-29T13:39:42.567Z,19.83
2022-11-29T13:42:55.624Z,17.25
2022-11-29T13:46:30.485Z,17.25
2022-11-29T13:49:58.129Z,18.47
2022-11-29T13:53:11.893Z,23.83
2022-11-29T13:56:42.812Z,25.85
2022-11-29T13:59:49.480Z,26.38
2022-11-29T14:02:52.164Z,22.90
2022-11-29T14:06:08.767Z,23.88
2022-11-29T14:09:32.404Z,22.08
2022-11-29T14:12:43.296Z,30.05
2022-11-29T14:15:56.564Z,29.87
2022-11-29T14:19:08.459Z,23.93
2022-11-29T14:22:22.203Z,20.70
2022-11-29T14:28:57.923Z,43.05
2022-11-29T14:32:00.745Z,29.03
2022-11-29T14:35:12.427Z,24.30
2022-11-29T14:38:46.404Z,25.60
2022-11-29T14:42:18.554Z,33.83
2022-11-29T14:45:45.255Z,35.38
2022-11-29T14:48:57.680Z,33.72
2022-11-29T14:52:15.875Z,40.40
2022-11-29T14:55:18.263Z,37.87
2022-11-29T14:58:21.773Z,48.88
2022-11-29T15:01:24.716Z,64.65
2022-11-29T15:04:33.097Z,90.35
2022-11-29T15:07:35.804Z,138.27
2022-11-29T15:10:47.421Z,280.30
2022-11-29T15:14:04.607Z,237.68
2022-11-29T15:17:20.321Z,152.50
2022-11-29T15:20:45.692Z,160.30
2022-11-29T15:23:59.802Z,131.90
2022-11-29T15:27:03.892Z,117.82
2022-11-29T15:30:28.678Z,100.67
2022-11-29T15:33:33.056Z,84.35
2022-11-29T15:36:43.699Z,89.47
2022-11-29T15:39:46.268Z,160.63
2022-11-29T15:42:54.750Z,223.23
2022-11-29T15:45:58.544Z,293.23
2022-11-29T15:49:18.864Z,392.10
2022-11-29T15:52:34.913Z,209.90
2022-11-29T15:55:37.907Z,131.48
2022-11-29T15:58:41.241Z,115.05
2022-11-29T16:01:48.132Z,200.73
2022-11-29T16:04:54.964Z,291.93
2022-11-29T16:08:19.677Z,292.40
2022-11-29T16:11:28.049Z,303.52
2022-11-29T16:14:31.268Z,433.35
2022-11-29T16:17:35.016Z,292.95
2022-11-29T16:20:37.972Z,263.15
2022-11-29T16:23:42.886Z,207.32
2022-11-29T16:26:47.234Z,165.93
2022-11-29T16:29:51.841Z,153.68
2022-11-29T16:32:58.132Z,120.22
2022-11-29T16:36:11.451Z,180.50
2022-11-29T16:39:23.428Z,142.73
2022-11-29T16:42:28.908Z,128.38
2022-11-29T16:45:33.783Z,219.27
2022-11-29T16:48:40.450Z,873.53
2022-11-29T16:51:48.145Z,266.80
2022-11-29T16:54:51.447Z,248.38
2022-11-29T16:57:54.189Z,212.20
2022-11-29T17:00:56.698Z,198.32
2022-11-29T17:04:00.605Z,178.40
2022-11-29T17:07:07.496Z,127.60
2022-11-29T17:10:16.547Z,166.20
2022-11-29T17:13:19.222Z,160.02
2022-11-29T17:16:24.610Z,279.95
2022-11-29T17:19:28.856Z,261.15
2022-11-29T17:22:31.383Z,382.23
2022-11-29T17:25:33.765Z,393.45
2022-11-29T17:28:36.219Z,325.80
2022-11-29T17:31:39.270Z,262.17
2022-11-29T17:34:41.756Z,205.25
2022-11-29T17:37:44.403Z,103.77
2022-11-29T17:40:46.977Z,150.25
2022-11-29T17:43:51.136Z,170.02
2022-11-29T17:46:56.921Z,207.85
2022-11-29T17:49:59.774Z,225.20
2022-11-29T17:53:02.289Z,228.60
2022-11-29T17:56:07.523Z,108.82
2022-11-29T17:59:10.077Z,125.40
2022-11-29T18:02:13.453Z,130.77
2022-11-29T18:05:16.405Z,108.78
2022-11-29T18:08:19.193Z,144.05
2022-11-29T18:11:26.318Z,117.80
2022-11-29T18:14:29.181Z,141.40
2022-11-29T18:17:32.175Z,129.07
2022-11-29T18:20:34.967Z,127.37
2022-11-29T18:23:39.867Z,139.65
2022-11-29T18:26:42.916Z,138.93
2022-11-29T18:29:45.748Z,118.00
2022-11-29T18:32:48.446Z,122.97
2022-11-29T18:35:51.476Z,117.65
2022-11-29T18:38:57.316Z,121.20
2022-11-29T18:42:00.131Z,127.53
2022-11-29T18:45:02.562Z,127.35
2022-11-29T18:48:06.765Z,143.80
2022-11-29T18:51:14.210Z,133.20
2022-11-29T18:54:18.484Z,137.18
2022-11-29T18:57:20.880Z,128.73
2022-11-29T19:00:26.176Z,126.70
2022-11-29T19:03:29.067Z,117.38
2022-11-29T19:06:39.366Z,101.85
2022-11-29T19:09:42.968Z,100.82
2022-11-29T19:12:45.881Z,120.20
2022-11-29T19:15:53.592Z,121.70
2022-11-29T19:18:58.128Z,140.93
2022-11-29T19:22:00.773Z,148.37
2022-11-29T19:25:03.505Z,151.20
2022-11-29T19:28:12.553Z,360.48
2022-11-29T19:31:19.259Z,309.67
2022-11-29T19:34:22.025Z,264.08
2022-11-29T19:37:24.816Z,345.70
2022-11-29T19:40:27.862Z,368.42
2022-11-29T19:43:31.712Z,433.58
2022-11-29T19:46:47.059Z,243.07
2022-11-29T19:49:50.111Z,227.02
2022-11-29T19:52:52.672Z,227.67
2022-11-29T19:55:55.388Z,216.10
2022-11-29T19:59:01.619Z,230.48
2022-11-29T20:02:04.533Z,300.80
2022-11-29T20:05:07.786Z,332.25
2022-11-29T20:08:10.200Z,235.32
2022-11-29T20:11:18.694Z,261.67
2022-11-29T20:14:21.388Z,130.98
2022-11-29T20:17:24.059Z,81.38
2022-11-29T20:20:26.714Z,57.97
2022-11-29T20:23:29.482Z,62.57
2022-11-29T20:26:35.062Z,91.70
2022-11-29T20:29:37.563Z,60.35
2022-11-29T20:32:40.642Z,53.83
2022-11-29T20:35:43.475Z,76.20
2022-11-29T20:38:54.954Z,68.07
2022-11-29T20:42:19.048Z,66.78
2022-11-29T20:45:23.723Z,64.57
2022-11-29T20:48:28.783Z,64.75
2022-11-29T20:51:49.791Z,62.17
2022-11-29T20:54:52.558Z,73.83
2022-11-29T20:57:55.207Z,78.47
2022-11-29T21:00:58.650Z,63.35
2022-11-29T21:04:01.373Z,66.00
2022-11-29T21:07:04.255Z,71.22
2022-11-29T21:10:07.605Z,69.10
2022-11-29T21:13:12.237Z,77.35
2022-11-29T21:16:15.315Z,75.05
2022-11-29T21:19:24.927Z,76.28
2022-11-29T21:22:37.986Z,72.80
2022-11-29T21:26:06.502Z,73.97
2022-11-29T21:29:14.289Z,78.97
2022-11-29T21:32:25.653Z,74.57
2022-11-29T21:35:28.037Z,67.23
2022-11-29T21:38:30.736Z,93.72
2022-11-29T21:41:33.645Z,110.03
2022-11-29T21:44:36.037Z,98.25
2022-11-29T21:47:38.487Z,88.05
2022-11-29T21:50:40.924Z,82.78
2022-11-29T21:53:43.344Z,84.90
2022-11-29T21:56:45.770Z,81.97
2022-11-29T21:59:48.228Z,109.68
2022-11-29T22:02:50.605Z,96.55
2022-11-29T22:05:53.010Z,94.80
2022-11-29T22:08:55.972Z,97.63
2022-11-29T22:11:59.015Z,82.55
2022-11-29T22:15:01.468Z,82.30
2022-11-29T22:18:04.103Z,90.18
2022-11-29T22:21:07.475Z,90.97
2022-11-29T22:24:11.129Z,83.30
2022-11-29T22:27:13.556Z,91.63
2022-11-29T22:30:16.393Z,97.05
2022-11-29T22:33:18.794Z,82.10
2022-11-29T22:36:21.445Z,76.93
2022-11-29T22:39:24.231Z,76.30
2022-11-29T22:42:26.674Z,109.10
2022-11-29T22:45:29.100Z,130.55
2022-11-29T22:48:38.244Z,130.38
2022-11-29T22:51:40.999Z,118.43
2022-11-29T22:54:43.541Z,73.60
2022-11-29T22:57:46.088Z,80.83
2022-11-29T23:00:48.457Z,71.38
2022-11-29T23:03:56.137Z,69.13
2022-11-29T23:06:58.766Z,65.33
2022-11-29T23:10:01.134Z,73.40
2022-11-29T23:13:03.685Z,68.82
2022-11-29T23:16:08.772Z,96.95
2022-11-29T23:19:11.695Z,98.35
2022-11-29T23:22:14.123Z,106.32
2022-11-29T23:25:16.558Z,106.93
2022-11-29T23:28:19.036Z,98.90
2022-11-29T23:31:23.166Z,91.28
2022-11-29T23:34:25.753Z,88.57
2022-11-29T23:37:28.132Z,75.03
2022-11-29T23:40:30.584Z,83.35
2022-11-29T23:43:35.760Z,89.43
2022-11-29T23:46:38.298Z,67.38
2022-11-29T23:49:40.971Z,83.50
2022-11-29T23:52:43.606Z,80.53
2022-11-29T23:55:55.833Z,68.80
2022-11-29T23:58:58.293Z,53.63
